sensor_id;sensor_type;location;lat;lon;timestamp;P1;durP1;ratioP1;P2;durP2;ratioP2
19509;SDS011;9896;42.486;26.506;2023-09-08T00:00:44;5.83;;;3.97;;
19509;SDS011;9896;42.486;26.506;2023-09-08T00:03:09;6.10;;;4.10;;
19509;SDS011;9896;42.486;26.506;2023-09-08T00:05:35;6.13;;;4.23;;
19509;SDS011;9896;42.486;26.506;2023-09-08T00:08:00;6.83;;;4.27;;
19509;SDS011;9896;42.486;26.506;2023-09-08T00:10:26;10.50;;;4.70;;
19509;SDS011;9896;42.486;26.506;2023-09-08T00:12:51;8.90;;;4.53;;
19509;SDS011;9896;42.486;26.506;2023-09-08T00:15:16;7.50;;;4.77;;
19509;SDS011;9896;42.486;26.506;2023-09-08T00:17:42;11.33;;;4.73;;
19509;SDS011;9896;42.486;26.506;2023-09-08T00:20:07;7.43;;;4.77;;
19509;SDS011;9896;42.486;26.506;2023-09-08T00:22:37;10.63;;;5.07;;
19509;SDS011;9896;42.486;26.506;2023-09-08T00:25:02;8.53;;;6.50;;
19509;SDS011;9896;42.486;26.506;2023-09-08T00:27:29;12.50;;;10.63;;
19509;SDS011;9896;42.486;26.506;2023-09-08T00:29:55;6.37;;;4.40;;
19509;SDS011;9896;42.486;26.506;2023-09-08T00:32:20;10.87;;;4.97;;
19509;SDS011;9896;42.486;26.506;2023-09-08T00:34:45;6.60;;;4.30;;
19509;SDS011;9896;42.486;26.506;2023-09-08T00:37:11;9.33;;;5.73;;
19509;SDS011;9896;42.486;26.506;2023-09-08T00:39:37;19.40;;;12.20;;
19509;SDS011;9896;42.486;26.506;2023-09-08T00:42:02;29.77;;;14.20;;
19509;SDS011;9896;42.486;26.506;2023-09-08T00:44:28;10.47;;;7.10;;
19509;SDS011;9896;42.486;26.506;2023-09-08T00:46:53;23.27;;;12.67;;
19509;SDS011;9896;42.486;26.506;2023-09-08T00:49:19;15.00;;;8.20;;
19509;SDS011;9896;42.486;26.506;2023-09-08T00:51:52;9.27;;;4.40;;
19509;SDS011;9896;42.486;26.506;2023-09-08T00:54:21;13.47;;;6.83;;
19509;SDS011;9896;42.486;26.506;2023-09-08T00:56:46;16.93;;;10.20;;
19509;SDS011;9896;42.486;26.506;2023-09-08T00:59:13;9.60;;;5.80;;
19509;SDS011;9896;42.486;26.506;2023-09-08T01:01:38;7.03;;;5.50;;
19509;SDS011;9896;42.486;26.506;2023-09-08T01:04:04;7.30;;;5.10;;
19509;SDS011;9896;42.486;26.506;2023-09-08T01:06:30;10.20;;;5.37;;
19509;SDS011;9896;42.486;26.506;2023-09-08T01:08:56;6.93;;;5.00;;
19509;SDS011;9896;42.486;26.506;2023-09-08T01:11:21;9.20;;;5.10;;
19509;SDS011;9896;42.486;26.506;2023-09-08T01:13:46;7.70;;;4.87;;
19509;SDS011;9896;42.486;26.506;2023-09-08T01:16:12;6.97;;;4.70;;
19509;SDS011;9896;42.486;26.506;2023-09-08T01:18:37;5.70;;;4.73;;
19509;SDS011;9896;42.486;26.506;2023-09-08T01:26:13;18.63;;;13.50;;
19509;SDS011;9896;42.486;26.506;2023-09-08T01:28:40;8.33;;;5.10;;
19509;SDS011;9896;42.486;26.506;2023-09-08T01:31:07;10.43;;;4.53;;
19509;SDS011;9896;42.486;26.506;2023-09-08T01:33:32;9.87;;;5.93;;
19509;SDS011;9896;42.486;26.506;2023-09-08T01:35:58;8.07;;;4.60;;
19509;SDS011;9896;42.486;26.506;2023-09-08T01:38:24;10.00;;;5.13;;
19509;SDS011;9896;42.486;26.506;2023-09-08T01:40:49;7.73;;;5.33;;
19509;SDS011;9896;42.486;26.506;2023-09-08T01:43:15;33.80;;;17.80;;
19509;SDS011;9896;42.486;26.506;2023-09-08T01:45:40;49.07;;;26.57;;
19509;SDS011;9896;42.486;26.506;2023-09-08T01:48:06;45.43;;;19.63;;
19509;SDS011;9896;42.486;26.506;2023-09-08T01:50:31;37.57;;;19.77;;
19509;SDS011;9896;42.486;26.506;2023-09-08T01:52:57;11.47;;;5.83;;
19509;SDS011;9896;42.486;26.506;2023-09-08T01:55:22;7.73;;;5.60;;
19509;SDS011;9896;42.486;26.506;2023-09-08T01:57:47;7.43;;;5.13;;
19509;SDS011;9896;42.486;26.506;2023-09-08T02:00:13;10.80;;;5.70;;
19509;SDS011;9896;42.486;26.506;2023-09-08T02:02:38;9.90;;;6.57;;
19509;SDS011;9896;42.486;26.506;2023-09-08T02:05:04;7.20;;;5.83;;
19509;SDS011;9896;42.486;26.506;2023-09-08T02:07:29;10.47;;;5.80;;
19509;SDS011;9896;42.486;26.506;2023-09-08T02:09:56;8.13;;;5.30;;
19509;SDS011;9896;42.486;26.506;2023-09-08T02:12:21;7.93;;;5.23;;
19509;SDS011;9896;42.486;26.506;2023-09-08T02:14:47;5.63;;;4.80;;
19509;SDS011;9896;42.486;26.506;2023-09-08T02:17:13;7.73;;;5.67;;
19509;SDS011;9896;42.486;26.506;2023-09-08T02:19:39;7.30;;;4.93;;
19509;SDS011;9896;42.486;26.506;2023-09-08T02:22:04;6.40;;;4.97;;
19509;SDS011;9896;42.486;26.506;2023-09-08T02:24:29;10.73;;;5.77;;
19509;SDS011;9896;42.486;26.506;2023-09-08T02:26:55;7.80;;;5.90;;
19509;SDS011;9896;42.486;26.506;2023-09-08T02:29:20;7.77;;;6.00;;
19509;SDS011;9896;42.486;26.506;2023-09-08T02:31:46;8.50;;;6.67;;
19509;SDS011;9896;42.486;26.506;2023-09-08T02:34:11;11.20;;;6.63;;
19509;SDS011;9896;42.486;26.506;2023-09-08T02:36:37;6.67;;;5.33;;
19509;SDS011;9896;42.486;26.506;2023-09-08T02:39:03;7.53;;;5.57;;
19509;SDS011;9896;42.486;26.506;2023-09-08T02:41:28;8.30;;;5.23;;
19509;SDS011;9896;42.486;26.506;2023-09-08T02:43:54;8.10;;;5.20;;
19509;SDS011;9896;42.486;26.506;2023-09-08T02:46:19;8.77;;;5.17;;
19509;SDS011;9896;42.486;26.506;2023-09-08T02:48:45;8.00;;;4.50;;
19509;SDS011;9896;42.486;26.506;2023-09-08T02:51:10;8.90;;;4.37;;
19509;SDS011;9896;42.486;26.506;2023-09-08T02:53:37;5.90;;;4.40;;
19509;SDS011;9896;42.486;26.506;2023-09-08T02:56:03;8.20;;;4.30;;
19509;SDS011;9896;42.486;26.506;2023-09-08T02:58:30;5.20;;;4.30;;
19509;SDS011;9896;42.486;26.506;2023-09-08T03:01:06;7.07;;;4.43;;
19509;SDS011;9896;42.486;26.506;2023-09-08T03:03:38;5.60;;;4.27;;
19509;SDS011;9896;42.486;26.506;2023-09-08T03:06:04;6.90;;;5.20;;
19509;SDS011;9896;42.486;26.506;2023-09-08T03:08:29;5.17;;;4.40;;
19509;SDS011;9896;42.486;26.506;2023-09-08T03:10:56;5.87;;;4.10;;
19509;SDS011;9896;42.486;26.506;2023-09-08T03:13:22;5.93;;;4.40;;
19509;SDS011;9896;42.486;26.506;2023-09-08T03:15:47;10.87;;;4.93;;
19509;SDS011;9896;42.486;26.506;2023-09-08T03:18:13;8.77;;;4.50;;
19509;SDS011;9896;42.486;26.506;2023-09-08T03:20:38;7.93;;;4.60;;
19509;SDS011;9896;42.486;26.506;2023-09-08T03:23:05;8.57;;;4.90;;
19509;SDS011;9896;42.486;26.506;2023-09-08T03:25:31;9.10;;;4.77;;
19509;SDS011;9896;42.486;26.506;2023-09-08T03:27:56;9.23;;;5.80;;
19509;SDS011;9896;42.486;26.506;2023-09-08T03:30:21;11.07;;;5.20;;
19509;SDS011;9896;42.486;26.506;2023-09-08T03:32:47;9.57;;;5.37;;
19509;SDS011;9896;42.486;26.506;2023-09-08T03:35:12;10.87;;;5.90;;
19509;SDS011;9896;42.486;26.506;2023-09-08T03:37:38;7.67;;;5.53;;
19509;SDS011;9896;42.486;26.506;2023-09-08T03:40:03;6.20;;;5.13;;
19509;SDS011;9896;42.486;26.506;2023-09-08T03:42:32;8.00;;;5.23;;
19509;SDS011;9896;42.486;26.506;2023-09-08T03:44:58;6.97;;;5.30;;
19509;SDS011;9896;42.486;26.506;2023-09-08T03:47:23;9.03;;;6.63;;
19509;SDS011;9896;42.486;26.506;2023-09-08T03:49:49;13.70;;;5.50;;
19509;SDS011;9896;42.486;26.506;2023-09-08T03:52:14;8.80;;;5.23;;
19509;SDS011;9896;42.486;26.506;2023-09-08T03:54:40;8.57;;;4.70;;
19509;SDS011;9896;42.486;26.506;2023-09-08T03:57:05;8.00;;;5.00;;
19509;SDS011;9896;42.486;26.506;2023-09-08T03:59:31;8.20;;;4.53;;
19509;SDS011;9896;42.486;26.506;2023-09-08T04:01:56;7.27;;;4.63;;
19509;SDS011;9896;42.486;26.506;2023-09-08T04:04:22;10.20;;;6.00;;
19509;SDS011;9896;42.486;26.506;2023-09-08T04:06:47;11.10;;;4.83;;
19509;SDS011;9896;42.486;26.506;2023-09-08T04:09:12;13.20;;;4.37;;
19509;SDS011;9896;42.486;26.506;2023-09-08T04:11:38;5.80;;;4.47;;
19509;SDS011;9896;42.486;26.506;2023-09-08T04:14:03;7.30;;;4.87;;
19509;SDS011;9896;42.486;26.506;2023-09-08T04:16:29;6.80;;;4.77;;
19509;SDS011;9896;42.486;26.506;2023-09-08T04:18:54;8.37;;;4.90;;
19509;SDS011;9896;42.486;26.506;2023-09-08T04:21:20;8.50;;;5.17;;
19509;SDS011;9896;42.486;26.506;2023-09-08T04:23:45;15.53;;;6.93;;
19509;SDS011;9896;42.486;26.506;2023-09-08T04:26:11;12.90;;;7.07;;
19509;SDS011;9896;42.486;26.506;2023-09-08T04:28:37;10.07;;;7.03;;
19509;SDS011;9896;42.486;26.506;2023-09-08T04:31:02;12.33;;;7.53;;
19509;SDS011;9896;42.486;26.506;2023-09-08T04:33:29;16.67;;;9.10;;
19509;SDS011;9896;42.486;26.506;2023-09-08T04:35:54;18.20;;;9.03;;
19509;SDS011;9896;42.486;26.506;2023-09-08T04:38:20;13.97;;;9.27;;
19509;SDS011;9896;42.486;26.506;2023-09-08T04:40:45;13.97;;;9.13;;
19509;SDS011;9896;42.486;26.506;2023-09-08T04:43:11;13.33;;;8.53;;
19509;SDS011;9896;42.486;26.506;2023-09-08T04:45:37;16.33;;;8.00;;
19509;SDS011;9896;42.486;26.506;2023-09-08T04:48:02;18.47;;;8.27;;
19509;SDS011;9896;42.486;26.506;2023-09-08T04:50:27;22.40;;;12.10;;
19509;SDS011;9896;42.486;26.506;2023-09-08T04:52:53;19.70;;;10.30;;
19509;SDS011;9896;42.486;26.506;2023-09-08T04:55:18;25.63;;;7.50;;
19509;SDS011;9896;42.486;26.506;2023-09-08T04:57:44;12.40;;;7.13;;
19509;SDS011;9896;42.486;26.506;2023-09-08T05:00:10;11.07;;;5.93;;
19509;SDS011;9896;42.486;26.506;2023-09-08T05:02:37;12.03;;;5.83;;
19509;SDS011;9896;42.486;26.506;2023-09-08T05:05:02;8.77;;;5.70;;
19509;SDS011;9896;42.486;26.506;2023-09-08T05:07:28;8.97;;;5.83;;
19509;SDS011;9896;42.486;26.506;2023-09-08T05:09:53;13.53;;;5.60;;
19509;SDS011;9896;42.486;26.506;2023-09-08T05:12:19;8.77;;;5.37;;
19509;SDS011;9896;42.486;26.506;2023-09-08T05:14:44;15.60;;;6.80;;
19509;SDS011;9896;42.486;26.506;2023-09-08T05:17:10;12.50;;;8.10;;
19509;SDS011;9896;42.486;26.506;2023-09-08T05:19:36;14.07;;;10.00;;
19509;SDS011;9896;42.486;26.506;2023-09-08T05:22:01;16.17;;;7.43;;
19509;SDS011;9896;42.486;26.506;2023-09-08T05:24:27;9.93;;;6.70;;
19509;SDS011;9896;42.486;26.506;2023-09-08T05:26:52;12.67;;;7.43;;
19509;SDS011;9896;42.486;26.506;2023-09-08T05:29:18;11.77;;;6.73;;
19509;SDS011;9896;42.486;26.506;2023-09-08T05:31:43;17.13;;;6.40;;
19509;SDS011;9896;42.486;26.506;2023-09-08T05:34:08;11.77;;;5.73;;
19509;SDS011;9896;42.486;26.506;2023-09-08T05:36:34;9.73;;;6.17;;
19509;SDS011;9896;42.486;26.506;2023-09-08T05:39:02;9.83;;;5.60;;
19509;SDS011;9896;42.486;26.506;2023-09-08T05:41:27;7.23;;;5.20;;
19509;SDS011;9896;42.486;26.506;2023-09-08T05:43:53;13.13;;;7.27;;
19509;SDS011;9896;42.486;26.506;2023-09-08T05:46:19;11.00;;;7.13;;
19509;SDS011;9896;42.486;26.506;2023-09-08T05:48:44;9.33;;;5.60;;
19509;SDS011;9896;42.486;26.506;2023-09-08T05:51:10;9.07;;;5.60;;
19509;SDS011;9896;42.486;26.506;2023-09-08T05:53:35;10.53;;;5.37;;
19509;SDS011;9896;42.486;26.506;2023-09-08T05:56:03;14.83;;;12.07;;
19509;SDS011;9896;42.486;26.506;2023-09-08T05:58:28;8.90;;;6.90;;
19509;SDS011;9896;42.486;26.506;2023-09-08T06:00:54;11.67;;;7.63;;
19509;SDS011;9896;42.486;26.506;2023-09-08T06:03:20;15.07;;;13.63;;
19509;SDS011;9896;42.486;26.506;2023-09-08T06:05:45;21.23;;;17.53;;
19509;SDS011;9896;42.486;26.506;2023-09-08T06:08:10;66.77;;;37.77;;
19509;SDS011;9896;42.486;26.506;2023-09-08T06:10:37;143.00;;;38.63;;
19509;SDS011;9896;42.486;26.506;2023-09-08T06:13:03;41.07;;;26.07;;
19509;SDS011;9896;42.486;26.506;2023-09-08T06:15:29;60.67;;;31.80;;
19509;SDS011;9896;42.486;26.506;2023-09-08T06:17:55;190.03;;;62.47;;
19509;SDS011;9896;42.486;26.506;2023-09-08T06:20:20;348.33;;;80.10;;
19509;SDS011;9896;42.486;26.506;2023-09-08T06:22:46;46.03;;;17.93;;
19509;SDS011;9896;42.486;26.506;2023-09-08T06:25:11;176.13;;;50.93;;
19509;SDS011;9896;42.486;26.506;2023-09-08T06:27:37;96.73;;;47.83;;
19509;SDS011;9896;42.486;26.506;2023-09-08T06:30:02;106.73;;;52.13;;
19509;SDS011;9896;42.486;26.506;2023-09-08T06:32:28;96.93;;;65.20;;
19509;SDS011;9896;42.486;26.506;2023-09-08T06:34:53;112.10;;;54.00;;
19509;SDS011;9896;42.486;26.506;2023-09-08T06:37:19;186.97;;;61.70;;
19509;SDS011;9896;42.486;26.506;2023-09-08T06:39:44;342.83;;;83.27;;
19509;SDS011;9896;42.486;26.506;2023-09-08T06:42:10;291.97;;;143.80;;
19509;SDS011;9896;42.486;26.506;2023-09-08T06:44:35;318.57;;;208.40;;
19509;SDS011;9896;42.486;26.506;2023-09-08T06:47:01;1688.77;;;830.47;;
19509;SDS011;9896;42.486;26.506;2023-09-08T06:49:28;945.87;;;381.03;;
19509;SDS011;9896;42.486;26.506;2023-09-08T06:51:53;1999.90;;;647.10;;
19509;SDS011;9896;42.486;26.506;2023-09-08T06:54:19;664.88;;;358.40;;
19509;SDS011;9896;42.486;26.506;2023-09-08T06:56:44;733.00;;;317.65;;
19509;SDS011;9896;42.486;26.506;2023-09-08T06:59:10;1028.05;;;439.88;;
19509;SDS011;9896;42.486;26.506;2023-09-08T07:01:36;406.77;;;248.98;;
19509;SDS011;9896;42.486;26.506;2023-09-08T07:04:02;1736.05;;;523.53;;
19509;SDS011;9896;42.486;26.506;2023-09-08T07:06:27;162.23;;;65.72;;
19509;SDS011;9896;42.486;26.506;2023-09-08T07:08:52;512.90;;;136.55;;
19509;SDS011;9896;42.486;26.506;2023-09-08T07:11:18;488.77;;;161.18;;
19509;SDS011;9896;42.486;26.506;2023-09-08T07:13:44;165.50;;;87.95;;
19509;SDS011;9896;42.486;26.506;2023-09-08T07:16:09;476.02;;;272.83;;
19509;SDS011;9896;42.486;26.506;2023-09-08T07:18:35;1941.80;;;483.52;;
19509;SDS011;9896;42.486;26.506;2023-09-08T07:21:02;371.10;;;113.25;;
19509;SDS011;9896;42.486;26.506;2023-09-08T07:23:28;995.83;;;225.75;;
19509;SDS011;9896;42.486;26.506;2023-09-08T07:25:53;235.18;;;136.18;;
19509;SDS011;9896;42.486;26.506;2023-09-08T07:28:19;932.45;;;269.92;;
19509;SDS011;9896;42.486;26.506;2023-09-08T07:30:44;581.97;;;324.45;;
19509;SDS011;9896;42.486;26.506;2023-09-08T07:33:09;165.43;;;73.25;;
19509;SDS011;9896;42.486;26.506;2023-09-08T07:35:38;639.05;;;235.30;;
19509;SDS011;9896;42.486;26.506;2023-09-08T07:38:04;164.55;;;49.55;;
19509;SDS011;9896;42.486;26.506;2023-09-08T07:40:29;259.58;;;103.60;;
19509;SDS011;9896;42.486;26.506;2023-09-08T07:42:55;1269.82;;;215.20;;
19509;SDS011;9896;42.486;26.506;2023-09-08T07:45:20;253.90;;;150.75;;
19509;SDS011;9896;42.486;26.506;2023-09-08T07:47:45;794.53;;;336.70;;
19509;SDS011;9896;42.486;26.506;2023-09-08T07:50:21;157.93;;;45.17;;
19509;SDS011;9896;42.486;26.506;2023-09-08T07:52:50;457.17;;;144.38;;
19509;SDS011;9896;42.486;26.506;2023-09-08T07:55:16;117.35;;;40.13;;
19509;SDS011;9896;42.486;26.506;2023-09-08T07:57:42;183.60;;;73.05;;
19509;SDS011;9896;42.486;26.506;2023-09-08T08:00:08;133.07;;;51.17;;
19509;SDS011;9896;42.486;26.506;2023-09-08T08:02:36;502.30;;;89.82;;
19509;SDS011;9896;42.486;26.506;2023-09-08T08:05:01;1453.50;;;216.00;;
19509;SDS011;9896;42.486;26.506;2023-09-08T08:07:27;120.57;;;50.55;;
19509;SDS011;9896;42.486;26.506;2023-09-08T08:09:52;104.15;;;61.88;;
19509;SDS011;9896;42.486;26.506;2023-09-08T08:12:19;115.82;;;59.83;;
19509;SDS011;9896;42.486;26.506;2023-09-08T08:14:44;182.52;;;74.35;;
19509;SDS011;9896;42.486;26.506;2023-09-08T08:17:10;239.80;;;73.20;;
19509;SDS011;9896;42.486;26.506;2023-09-08T08:19:36;125.05;;;50.30;;
19509;SDS011;9896;42.486;26.506;2023-09-08T08:22:01;835.95;;;100.30;;
19509;SDS011;9896;42.486;26.506;2023-09-08T08:24:27;440.75;;;66.97;;
19509;SDS011;9896;42.486;26.506;2023-09-08T08:26:52;346.40;;;79.60;;
19509;SDS011;9896;42.486;26.506;2023-09-08T08:29:18;411.10;;;95.07;;
19509;SDS011;9896;42.486;26.506;2023-09-08T08:31:44;361.73;;;62.35;;
19509;SDS011;9896;42.486;26.506;2023-09-08T08:34:09;258.08;;;68.88;;
19509;SDS011;9896;42.486;26.506;2023-09-08T08:36:35;86.72;;;41.35;;
19509;SDS011;9896;42.486;26.506;2023-09-08T08:39:00;166.00;;;44.45;;
19509;SDS011;9896;42.486;26.506;2023-09-08T08:41:25;107.38;;;30.48;;
19509;SDS011;9896;42.486;26.506;2023-09-08T08:43:51;121.40;;;39.50;;
19509;SDS011;9896;42.486;26.506;2023-09-08T08:46:18;366.20;;;69.55;;
19509;SDS011;9896;42.486;26.506;2023-09-08T08:48:46;1906.72;;;207.10;;
19509;SDS011;9896;42.486;26.506;2023-09-08T08:51:12;123.25;;;49.13;;
19509;SDS011;9896;42.486;26.506;2023-09-08T08:53:37;193.13;;;56.20;;
19509;SDS011;9896;42.486;26.506;2023-09-08T08:56:04;122.38;;;53.83;;
19509;SDS011;9896;42.486;26.506;2023-09-08T08:58:33;118.00;;;51.88;;
19509;SDS011;9896;42.486;26.506;2023-09-08T09:00:59;11.43;;;4.22;;
19509;SDS011;9896;42.486;26.506;2023-09-08T09:03:26;11.20;;;3.47;;
19509;SDS011;9896;42.486;26.506;2023-09-08T09:05:52;10.85;;;3.78;;
19509;SDS011;9896;42.486;26.506;2023-09-08T09:08:17;6.55;;;3.97;;
19509;SDS011;9896;42.486;26.506;2023-09-08T09:10:43;6.30;;;3.85;;
19509;SDS011;9896;42.486;26.506;2023-09-08T09:13:08;7.20;;;3.70;;
19509;SDS011;9896;42.486;26.506;2023-09-08T09:15:34;236.82;;;22.33;;
19509;SDS011;9896;42.486;26.506;2023-09-08T09:18:03;6.10;;;3.67;;
19509;SDS011;9896;42.486;26.506;2023-09-08T09:20:29;8.57;;;3.05;;
19509;SDS011;9896;42.486;26.506;2023-09-08T09:22:55;8.30;;;3.45;;
19509;SDS011;9896;42.486;26.506;2023-09-08T09:25:21;9.32;;;3.58;;
19509;SDS011;9896;42.486;26.506;2023-09-08T09:27:53;6.63;;;3.65;;
19509;SDS011;9896;42.486;26.506;2023-09-08T09:30:19;9.48;;;3.70;;
19509;SDS011;9896;42.486;26.506;2023-09-08T09:32:44;6.30;;;3.58;;
19509;SDS011;9896;42.486;26.506;2023-09-08T09:35:10;11.93;;;3.92;;
19509;SDS011;9896;42.486;26.506;2023-09-08T09:37:35;7.43;;;3.80;;
19509;SDS011;9896;42.486;26.506;2023-09-08T09:40:01;5.50;;;3.72;;
19509;SDS011;9896;42.486;26.506;2023-09-08T09:42:28;13.68;;;5.15;;
19509;SDS011;9896;42.486;26.506;2023-09-08T09:44:54;17.58;;;4.60;;
19509;SDS011;9896;42.486;26.506;2023-09-08T09:47:19;7.60;;;3.28;;
19509;SDS011;9896;42.486;26.506;2023-09-08T09:49:46;15.23;;;4.20;;
19509;SDS011;9896;42.486;26.506;2023-09-08T09:52:12;7.03;;;3.40;;
19509;SDS011;9896;42.486;26.506;2023-09-08T09:54:41;8.57;;;3.72;;
19509;SDS011;9896;42.486;26.506;2023-09-08T09:57:07;7.57;;;3.67;;
19509;SDS011;9896;42.486;26.506;2023-09-08T09:59:33;8.38;;;4.50;;
19509;SDS011;9896;42.486;26.506;2023-09-08T10:01:59;4.65;;;3.40;;
19509;SDS011;9896;42.486;26.506;2023-09-08T10:04:24;6.35;;;4.10;;
19509;SDS011;9896;42.486;26.506;2023-09-08T10:06:50;6.55;;;3.75;;
19509;SDS011;9896;42.486;26.506;2023-09-08T10:09:17;7.03;;;3.88;;
19509;SDS011;9896;42.486;26.506;2023-09-08T10:11:48;7.90;;;3.10;;
19509;SDS011;9896;42.486;26.506;2023-09-08T10:14:17;9.00;;;3.67;;
19509;SDS011;9896;42.486;26.506;2023-09-08T10:16:44;55.47;;;4.88;;
19509;SDS011;9896;42.486;26.506;2023-09-08T10:19:10;5.13;;;3.50;;
19509;SDS011;9896;42.486;26.506;2023-09-08T10:21:42;4.78;;;3.15;;
19509;SDS011;9896;42.486;26.506;2023-09-08T10:24:23;14.38;;;3.85;;
19509;SDS011;9896;42.486;26.506;2023-09-08T10:29:22;14.40;;;3.53;;
19509;SDS011;9896;42.486;26.506;2023-09-08T10:31:48;4.97;;;3.75;;
19509;SDS011;9896;42.486;26.506;2023-09-08T10:34:13;10.45;;;4.55;;
19509;SDS011;9896;42.486;26.506;2023-09-08T10:36:39;8.35;;;4.47;;
19509;SDS011;9896;42.486;26.506;2023-09-08T10:41:49;9.65;;;4.78;;
19509;SDS011;9896;42.486;26.506;2023-09-08T10:44:14;7.53;;;4.47;;
19509;SDS011;9896;42.486;26.506;2023-09-08T10:46:40;6.72;;;4.35;;
19509;SDS011;9896;42.486;26.506;2023-09-08T10:49:06;5.63;;;4.20;;
19509;SDS011;9896;42.486;26.506;2023-09-08T10:51:35;7.25;;;4.15;;
19509;SDS011;9896;42.486;26.506;2023-09-08T10:54:01;5.68;;;4.10;;
19509;SDS011;9896;42.486;26.506;2023-09-08T10:56:26;7.38;;;4.60;;
19509;SDS011;9896;42.486;26.506;2023-09-08T10:58:53;9.15;;;4.03;;
19509;SDS011;9896;42.486;26.506;2023-09-08T11:01:19;11.43;;;4.70;;
19509;SDS011;9896;42.486;26.506;2023-09-08T11:03:51;41.10;;;4.93;;
19509;SDS011;9896;42.486;26.506;2023-09-08T11:06:17;7.72;;;5.10;;
19509;SDS011;9896;42.486;26.506;2023-09-08T11:08:43;5.88;;;4.50;;
19509;SDS011;9896;42.486;26.506;2023-09-08T11:11:10;6.80;;;5.00;;
19509;SDS011;9896;42.486;26.506;2023-09-08T11:13:35;11.73;;;5.18;;
19509;SDS011;9896;42.486;26.506;2023-09-08T11:16:01;10.82;;;5.30;;
19509;SDS011;9896;42.486;26.506;2023-09-08T11:18:31;9.05;;;5.25;;
19509;SDS011;9896;42.486;26.506;2023-09-08T11:20:57;9.18;;;5.43;;
19509;SDS011;9896;42.486;26.506;2023-09-08T11:23:23;8.52;;;5.25;;
19509;SDS011;9896;42.486;26.506;2023-09-08T11:25:49;6.93;;;4.65;;
19509;SDS011;9896;42.486;26.506;2023-09-08T11:28:15;9.43;;;4.22;;
19509;SDS011;9896;42.486;26.506;2023-09-08T11:30:41;54.47;;;6.07;;
19509;SDS011;9896;42.486;26.506;2023-09-08T11:33:15;7.53;;;4.32;;
19509;SDS011;9896;42.486;26.506;2023-09-08T11:35:41;7.57;;;4.60;;
19509;SDS011;9896;42.486;26.506;2023-09-08T11:38:09;8.02;;;4.35;;
19509;SDS011;9896;42.486;26.506;2023-09-08T11:40:35;8.85;;;4.72;;
19509;SDS011;9896;42.486;26.506;2023-09-08T11:43:02;9.82;;;4.50;;
19509;SDS011;9896;42.486;26.506;2023-09-08T11:45:27;7.32;;;4.78;;
19509;SDS011;9896;42.486;26.506;2023-09-08T11:47:53;7.72;;;4.60;;
19509;SDS011;9896;42.486;26.506;2023-09-08T11:50:19;8.77;;;4.80;;
19509;SDS011;9896;42.486;26.506;2023-09-08T11:52:44;6.18;;;4.20;;
19509;SDS011;9896;42.486;26.506;2023-09-08T11:55:11;7.20;;;4.30;;
19509;SDS011;9896;42.486;26.506;2023-09-08T11:57:36;5.85;;;3.75;;
19509;SDS011;9896;42.486;26.506;2023-09-08T12:00:02;12.32;;;4.43;;
19509;SDS011;9896;42.486;26.506;2023-09-08T12:02:33;6.32;;;4.13;;
19509;SDS011;9896;42.486;26.506;2023-09-08T12:04:58;8.00;;;4.50;;
19509;SDS011;9896;42.486;26.506;2023-09-08T12:07:24;8.35;;;4.43;;
19509;SDS011;9896;42.486;26.506;2023-09-08T12:09:49;6.20;;;3.92;;
19509;SDS011;9896;42.486;26.506;2023-09-08T12:12:15;7.35;;;4.25;;
19509;SDS011;9896;42.486;26.506;2023-09-08T12:14:41;6.13;;;3.83;;
19509;SDS011;9896;42.486;26.506;2023-09-08T12:17:07;9.73;;;3.90;;
19509;SDS011;9896;42.486;26.506;2023-09-08T12:19:32;6.43;;;3.78;;
19509;SDS011;9896;42.486;26.506;2023-09-08T12:22:01;7.30;;;3.80;;
19509;SDS011;9896;42.486;26.506;2023-09-08T12:27:13;61.13;;;6.70;;
19509;SDS011;9896;42.486;26.506;2023-09-08T12:29:39;8.90;;;3.60;;
19509;SDS011;9896;42.486;26.506;2023-09-08T12:32:04;8.23;;;3.72;;
19509;SDS011;9896;42.486;26.506;2023-09-08T12:34:30;6.50;;;4.28;;
19509;SDS011;9896;42.486;26.506;2023-09-08T12:36:55;6.60;;;3.80;;
19509;SDS011;9896;42.486;26.506;2023-09-08T12:39:21;5.05;;;3.65;;
19509;SDS011;9896;42.486;26.506;2023-09-08T12:41:46;7.03;;;3.85;;
19509;SDS011;9896;42.486;26.506;2023-09-08T12:44:11;9.77;;;3.85;;
19509;SDS011;9896;42.486;26.506;2023-09-08T12:46:37;10.27;;;4.07;;
19509;SDS011;9896;42.486;26.506;2023-09-08T12:49:02;9.77;;;4.32;;
19509;SDS011;9896;42.486;26.506;2023-09-08T12:51:28;6.57;;;4.28;;
19509;SDS011;9896;42.486;26.506;2023-09-08T12:53:53;7.20;;;3.90;;
19509;SDS011;9896;42.486;26.506;2023-09-08T12:56:18;11.18;;;4.25;;
19509;SDS011;9896;42.486;26.506;2023-09-08T12:58:44;5.32;;;3.17;;
19509;SDS011;9896;42.486;26.506;2023-09-08T13:01:09;6.70;;;3.55;;
19509;SDS011;9896;42.486;26.506;2023-09-08T13:03:35;39.95;;;4.65;;
19509;SDS011;9896;42.486;26.506;2023-09-08T13:06:00;6.38;;;4.00;;
19509;SDS011;9896;42.486;26.506;2023-09-08T13:08:25;6.97;;;3.58;;
19509;SDS011;9896;42.486;26.506;2023-09-08T13:10:51;23.13;;;4.13;;
19509;SDS011;9896;42.486;26.506;2023-09-08T13:13:16;5.68;;;4.00;;
19509;SDS011;9896;42.486;26.506;2023-09-08T13:15:42;6.20;;;3.42;;
19509;SDS011;9896;42.486;26.506;2023-09-08T13:18:08;4.63;;;3.80;;
19509;SDS011;9896;42.486;26.506;2023-09-08T13:20:33;9.73;;;3.88;;
19509;SDS011;9896;42.486;26.506;2023-09-08T13:22:58;13.13;;;3.78;;
19509;SDS011;9896;42.486;26.506;2023-09-08T13:25:24;9.27;;;3.78;;
19509;SDS011;9896;42.486;26.506;2023-09-08T13:27:49;5.47;;;3.90;;
19509;SDS011;9896;42.486;26.506;2023-09-08T13:30:15;8.85;;;4.05;;
19509;SDS011;9896;42.486;26.506;2023-09-08T13:32:41;9.60;;;4.07;;
19509;SDS011;9896;42.486;26.506;2023-09-08T13:35:07;5.95;;;3.70;;
19509;SDS011;9896;42.486;26.506;2023-09-08T13:37:33;9.73;;;3.92;;
19509;SDS011;9896;42.486;26.506;2023-09-08T13:40:03;8.95;;;3.95;;
19509;SDS011;9896;42.486;26.506;2023-09-08T13:42:28;6.70;;;4.03;;
19509;SDS011;9896;42.486;26.506;2023-09-08T13:44:54;12.38;;;4.25;;
19509;SDS011;9896;42.486;26.506;2023-09-08T13:47:20;6.45;;;4.40;;
19509;SDS011;9896;42.486;26.506;2023-09-08T13:49:46;6.80;;;4.45;;
19509;SDS011;9896;42.486;26.506;2023-09-08T13:52:11;7.70;;;3.50;;
19509;SDS011;9896;42.486;26.506;2023-09-08T13:54:36;11.95;;;3.80;;
19509;SDS011;9896;42.486;26.506;2023-09-08T13:57:02;8.35;;;4.40;;
19509;SDS011;9896;42.486;26.506;2023-09-08T13:59:28;7.50;;;4.45;;
19509;SDS011;9896;42.486;26.506;2023-09-08T14:01:54;7.18;;;3.92;;
19509;SDS011;9896;42.486;26.506;2023-09-08T14:04:20;7.72;;;3.80;;
19509;SDS011;9896;42.486;26.506;2023-09-08T14:06:45;9.43;;;4.45;;
19509;SDS011;9896;42.486;26.506;2023-09-08T14:09:10;7.93;;;4.38;;
19509;SDS011;9896;42.486;26.506;2023-09-08T14:11:36;9.13;;;4.70;;
19509;SDS011;9896;42.486;26.506;2023-09-08T14:14:01;8.13;;;3.85;;
19509;SDS011;9896;42.486;26.506;2023-09-08T14:16:28;10.07;;;4.22;;
19509;SDS011;9896;42.486;26.506;2023-09-08T14:18:53;11.75;;;4.45;;
19509;SDS011;9896;42.486;26.506;2023-09-08T14:21:19;8.30;;;3.80;;
19509;SDS011;9896;42.486;26.506;2023-09-08T14:23:45;7.53;;;4.47;;
19509;SDS011;9896;42.486;26.506;2023-09-08T14:26:10;8.80;;;4.70;;
19509;SDS011;9896;42.486;26.506;2023-09-08T14:28:36;9.35;;;4.13;;
19509;SDS011;9896;42.486;26.506;2023-09-08T14:31:01;13.68;;;5.00;;
19509;SDS011;9896;42.486;26.506;2023-09-08T14:33:27;13.18;;;4.47;;
19509;SDS011;9896;42.486;26.506;2023-09-08T14:35:52;6.00;;;4.22;;
19509;SDS011;9896;42.486;26.506;2023-09-08T14:38:19;6.95;;;4.53;;
19509;SDS011;9896;42.486;26.506;2023-09-08T14:40:44;8.77;;;4.57;;